Time;durP1;ratioP1;P1;durP2;ratioP2;P2;SDS_P1;SDS_P2;PMS_P1;PMS_P2;Temp;Humidity;BMP_temperature;BMP_pressure;BME280_temperature;BME280_humidity;BME280_pressure;Samples;Min_cycle;Max_cycle;Signal;HPM_P1;HPM_P2
2021/03/11 00:00:51;;;;;;;32.80;15.00;;;;;;;6.37;100.00;100313.66;5144071;28;20363;-85
2021/03/11 00:03:23;;;;;;;38.85;15.13;;;;;;;6.40;100.00;100318.69;5144321;28;20037;-85
2021/03/11 00:05:54;;;;;;;35.55;15.07;;;;;;;6.35;100.00;100320.97;5144752;28;20034;-85
2021/03/11 00:08:24;;;;;;;31.77;13.60;;;;;;;6.37;100.00;100303.81;5144291;28;20031;-85
2021/03/11 00:10:54;;;;;;;32.53;14.27;;;;;;;6.40;100.00;100306.19;5143543;28;20046;-85
2021/03/11 00:13:25;;;;;;;37.28;14.82;;;;;;;6.48;100.00;100303.63;5143074;28;20039;-85
2021/03/11 00:15:56;;;;;;;28.25;13.38;;;;;;;6.48;100.00;100298.28;5144558;28;20023;-84
2021/03/11 00:18:26;;;;;;;27.52;12.75;;;;;;;6.52;100.00;100300.63;5143176;28;20396;-84
2021/03/11 00:20:57;;;;;;;26.95;13.38;;;;;;;6.51;100.00;100298.97;5134521;28;20407;-84
2021/03/11 00:23:27;;;;;;;29.85;15.38;;;;;;;6.51;100.00;100293.63;5143882;28;20110;-85
2021/03/11 00:25:58;;;;;;;28.00;11.73;;;;;;;6.54;100.00;100280.84;5144532;28;20038;-85
2021/03/11 00:28:29;;;;;;;29.48;12.80;;;;;;;6.51;100.00;100272.31;5142855;28;20433;-85
2021/03/11 00:30:59;;;;;;;30.92;13.35;;;;;;;6.57;100.00;100269.84;5143656;28;20508;-85
2021/03/11 00:33:30;;;;;;;27.83;12.25;;;;;;;6.60;100.00;100256.25;5143857;28;20031;-85
2021/03/11 00:36:00;;;;;;;26.05;12.02;;;;;;;6.67;100.00;100259.09;5143769;28;20126;-85
2021/03/11 00:38:31;;;;;;;24.65;11.70;;;;;;;6.66;100.00;100260.09;5144161;28;20058;-85
2021/03/11 00:41:01;;;;;;;25.10;11.90;;;;;;;6.67;100.00;100261.78;5143487;28;20041;-85
2021/03/11 00:43:32;;;;;;;29.48;12.05;;;;;;;6.61;100.00;100247.25;5143929;28;20478;-85
2021/03/11 00:46:02;;;;;;;30.45;13.30;;;;;;;6.65;100.00;100229.13;5143351;28;20022;-85
2021/03/11 00:48:33;;;;;;;24.08;11.20;;;;;;;6.69;100.00;100234.00;5143678;28;20046;-85
2021/03/11 00:51:03;;;;;;;22.40;10.68;;;;;;;6.70;100.00;100238.31;5122202;28;20027;-86
2021/03/11 00:53:34;;;;;;;23.63;10.93;;;;;;;6.72;100.00;100227.50;5142466;28;20061;-85
2021/03/11 00:56:05;;;;;;;26.88;11.80;;;;;;;6.76;100.00;100228.84;5143785;28;20390;-86
2021/03/11 00:58:35;;;;;;;26.55;11.60;;;;;;;6.82;100.00;100235.38;5143984;28;20097;-85
2021/03/11 01:01:06;;;;;;;23.10;11.48;;;;;;;6.85;100.00;100238.59;5143176;28;20027;-85
2021/03/11 01:03:36;;;;;;;21.77;10.15;;;;;;;6.90;100.00;100238.94;5143889;28;20035;-85
2021/03/11 01:06:07;;;;;;;23.58;11.48;;;;;;;6.94;100.00;100216.31;5142440;28;20026;-85
2021/03/11 01:08:38;;;;;;;24.13;10.48;;;;;;;6.93;100.00;100214.66;5158516;28;20030;-85
2021/03/11 01:11:09;;;;;;;21.60;10.90;;;;;;;6.94;100.00;100216.31;5144834;28;20039;-85
2021/03/11 01:13:39;;;;;;;21.70;10.45;;;;;;;7.00;100.00;100217.50;5145840;28;20030;-85
2021/03/11 01:16:10;;;;;;;25.63;12.15;;;;;;;6.95;100.00;100209.97;5142898;28;20073;-85
2021/03/11 01:18:41;;;;;;;23.27;11.13;;;;;;;6.98;100.00;100196.34;5140120;28;20031;-84
2021/03/11 01:21:11;;;;;;;23.52;11.65;;;;;;;7.03;100.00;100193.19;5134984;28;20014;-85
2021/03/11 01:23:42;;;;;;;30.13;11.40;;;;;;;7.01;100.00;100204.00;5143011;28;20035;-85
2021/03/11 01:26:12;;;;;;;23.80;11.70;;;;;;;7.01;100.00;100193.34;5143188;28;20493;-85
2021/03/11 01:28:42;;;;;;;24.58;11.65;;;;;;;7.01;100.00;100185.34;5142125;28;20031;-85
2021/03/11 01:31:13;;;;;;;28.05;12.80;;;;;;;6.91;100.00;100165.94;5142832;28;20031;-85
2021/03/11 01:33:43;;;;;;;27.98;12.27;;;;;;;6.97;100.00;100159.97;5143128;28;20035;-85
2021/03/11 01:36:14;;;;;;;25.75;12.98;;;;;;;6.92;100.00;100167.63;5142901;28;20117;-85
2021/03/11 01:38:44;;;;;;;25.08;12.25;;;;;;;6.98;100.00;100175.00;5143073;28;20058;-85
2021/03/11 01:41:15;;;;;;;27.40;13.02;;;;;;;6.98;100.00;100156.34;5142917;28;20030;-85
2021/03/11 01:43:45;;;;;;;28.15;12.32;;;;;;;7.05;100.00;100161.03;5143922;28;20102;-85
2021/03/11 01:46:16;;;;;;;30.45;13.63;;;;;;;7.04;100.00;100156.69;5143366;28;20043;-85
2021/03/11 01:48:46;;;;;;;31.92;13.40;;;;;;;7.03;100.00;100150.53;5141735;28;20105;-85
2021/03/11 01:51:18;;;;;;;27.48;13.40;;;;;;;7.01;100.00;100141.84;5141832;28;20022;-85
2021/03/11 01:53:50;;;;;;;27.52;12.75;;;;;;;7.01;100.00;100147.16;5141769;28;20034;-85
2021/03/11 01:56:21;;;;;;;25.52;12.80;;;;;;;7.05;100.00;100153.84;5143507;28;20030;-85
2021/03/11 01:58:52;;;;;;;26.17;13.07;;;;;;;7.13;100.00;100137.91;5145523;28;20042;-85
2021/03/11 02:01:22;;;;;;;27.50;13.90;;;;;;;7.10;100.00;100121.38;5141422;28;20058;-85
2021/03/11 02:03:52;;;;;;;31.73;13.98;;;;;;;7.11;100.00;100120.38;5142001;28;20045;-86
2021/03/11 02:06:33;;;;;;;31.83;13.95;;;;;;;7.06;100.00;100128.84;5147353;28;20069;-86
2021/03/11 02:09:08;;;;;;;34.40;15.60;;;;;;;7.04;100.00;100119.34;5146715;28;20058;-86
2021/03/11 02:12:12;;;;;;;31.52;15.43;;;;;;;7.00;100.00;100103.66;5149346;28;20362;-84
2021/03/11 02:14:54;;;;;;;34.50;16.65;;;;;;;6.95;100.00;100089.97;5140773;28;20122;-85
2021/03/11 02:17:31;;;;;;;40.25;18.08;;;;;;;6.92;100.00;100070.78;5135096;28;20038;-85
2021/03/11 02:20:28;;;;;;;45.67;18.20;;;;;;;6.89;100.00;100076.47;5135220;28;20065;-86
2021/03/11 02:23:14;;;;;;;42.97;18.27;;;;;;;6.88;100.00;100058.81;5146557;28;20041;-84
2021/03/11 02:26:08;;;;;;;48.63;19.15;;;;;;;6.88;100.00;100054.31;5146566;28;20034;-85
2021/03/11 02:29:03;;;;;;;43.28;19.10;;;;;;;6.98;100.00;100049.66;5146132;28;20478;-85
2021/03/11 02:31:36;;;;;;;45.40;18.40;;;;;;;6.89;100.00;100053.31;5146368;28;20461;-85
2021/03/11 02:34:18;;;;;;;42.53;17.65;;;;;;;6.92;100.00;100052.13;5146533;28;20035;-85
2021/03/11 02:36:52;;;;;;;45.75;17.52;;;;;;;6.94;100.00;100037.66;5146353;28;20462;-85
2021/03/11 02:39:27;;;;;;;45.92;19.27;;;;;;;6.95;100.00;100041.16;5146392;28;20026;-85
2021/03/11 02:41:59;;;;;;;42.47;18.98;;;;;;;7.02;100.00;100031.47;5145970;28;20049;-85
2021/03/11 02:44:30;;;;;;;41.50;18.95;;;;;;;6.98;100.00;100019.50;5146416;28;20023;-84
2021/03/11 02:47:02;;;;;;;42.10;18.33;;;;;;;7.07;100.00;100009.66;5146209;28;20027;-85
2021/03/11 02:49:35;;;;;;;35.63;15.98;;;;;;;7.17;100.00;100000.50;5145910;28;20431;-85
2021/03/11 02:52:06;;;;;;;39.17;17.52;;;;;;;7.13;100.00;99993.00;5144425;28;20264;-85
2021/03/11 02:54:38;;;;;;;37.13;16.92;;;;;;;7.15;100.00;99996.34;5145708;28;20143;-85
2021/03/11 02:57:12;;;;;;;37.67;17.52;;;;;;;7.21;100.00;99983.19;5146096;28;20034;-85
2021/03/11 02:59:44;;;;;;;40.97;17.23;;;;;;;7.28;100.00;99970.03;5145472;28;20027;-84
2021/03/11 03:02:15;;;;;;;39.70;16.52;;;;;;;7.37;100.00;99952.16;5147464;28;20430;-84
2021/03/11 03:04:55;;;;;;;36.05;16.25;;;;;;;7.40;100.00;99957.19;5148187;28;20386;-85
2021/03/11 03:07:27;;;;;;;33.83;15.70;;;;;;;7.43;100.00;99939.00;5144914;28;20031;-85
2021/03/11 03:09:58;;;;;;;34.67;16.58;;;;;;;7.53;100.00;99933.50;5143879;28;20027;-85
2021/03/11 03:12:29;;;;;;;31.80;14.85;;;;;;;7.56;100.00;99935.81;5145112;28;20062;-85
2021/03/11 03:15:00;;;;;;;33.80;15.98;;;;;;;7.58;100.00;99936.50;5145317;28;20110;-85
2021/03/11 03:17:32;;;;;;;30.27;14.50;;;;;;;7.68;100.00;99954.97;5144686;28;20053;-85
2021/03/11 03:20:07;;;;;;;36.05;15.35;;;;;;;7.72;100.00;99930.44;5145017;28;20033;-84
2021/03/11 03:22:39;;;;;;;36.95;15.90;;;;;;;7.78;100.00;99913.75;5139831;28;20062;-85
2021/03/11 03:25:13;;;;;;;31.50;15.13;;;;;;;7.77;100.00;99925.41;5143182;28;20035;-85
2021/03/11 03:27:43;;;;;;;34.03;15.02;;;;;;;7.82;100.00;99916.06;5145307;28;20057;-85
2021/03/11 03:30:17;;;;;;;30.55;14.43;;;;;;;7.82;100.00;99922.25;5143207;28;20144;-85
2021/03/11 03:32:48;;;;;;;30.10;13.80;;;;;;;7.87;100.00;99911.88;5158944;28;20473;-85
2021/03/11 03:35:22;;;;;;;29.08;13.82;;;;;;;7.93;100.00;99905.88;5145057;28;20053;-85
2021/03/11 03:37:53;;;;;;;32.08;13.23;;;;;;;8.10;100.00;99892.44;5142721;28;20089;-85
2021/03/11 03:40:24;;;;;;;31.30;13.32;;;;;;;8.10;100.00;99895.94;5144818;28;20023;-85
2021/03/11 03:43:12;;;;;;;25.05;12.23;;;;;;;8.13;100.00;99913.44;5144900;28;20033;-85
2021/03/11 03:45:49;;;;;;;28.65;13.80;;;;;;;8.17;100.00;99904.91;5144921;28;20474;-85
2021/03/11 03:48:27;;;;;;;29.42;13.35;;;;;;;8.19;100.00;99897.59;5143888;28;20037;-85
2021/03/11 03:50:58;;;;;;;23.50;12.05;;;;;;;8.29;100.00;99889.34;5144340;28;20054;-84
2021/03/11 03:53:41;;;;;;;25.45;11.93;;;;;;;8.29;100.00;99862.63;5143812;28;20658;-85
2021/03/11 03:56:17;;;;;;;27.15;11.63;;;;;;;8.30;100.00;99864.28;5145122;28;20031;-84
2021/03/11 03:58:52;;;;;;;28.13;13.07;;;;;;;8.25;100.00;99864.00;5145327;28;20109;-85
2021/03/11 04:01:25;;;;;;;27.80;13.07;;;;;;;8.15;100.00;99832.13;5144351;28;20142;-85
2021/03/11 04:03:58;;;;;;;22.73;11.65;;;;;;;8.21;100.00;99825.25;5144692;28;20031;-85
2021/03/11 04:06:31;;;;;;;25.02;12.30;;;;;;;8.17;100.00;99845.31;5143594;28;20035;-84
2021/03/11 04:09:06;;;;;;;25.02;12.55;;;;;;;8.24;100.00;99838.28;5144626;28;20078;-85
2021/03/11 04:11:38;;;;;;;27.17;12.90;;;;;;;8.21;100.00;99830.59;5144318;28;20113;-85
2021/03/11 04:14:10;;;;;;;27.40;12.60;;;;;;;8.20;100.00;99824.44;5147612;28;20033;-85
2021/03/11 04:16:42;;;;;;;29.98;13.02;;;;;;;8.15;100.00;99826.81;5144368;28;20042;-85
2021/03/11 04:19:13;;;;;;;29.73;12.43;;;;;;;8.16;100.00;99823.13;5143221;28;20151;-85
2021/03/11 04:21:45;;;;;;;30.92;12.07;;;;;;;8.19;100.00;99816.59;5143290;28;20097;-85
2021/03/11 04:24:16;;;;;;;26.77;12.43;;;;;;;8.19;100.00;99830.78;5144748;28;20089;-85
2021/03/11 04:26:47;;;;;;;24.60;11.73;;;;;;;8.27;100.00;99811.19;5143968;28;20512;-85
2021/03/11 04:29:18;;;;;;;22.75;10.68;;;;;;;8.29;100.00;99814.53;5142754;28;20023;-85
2021/03/11 04:31:49;;;;;;;20.92;10.63;;;;;;;8.37;100.00;99819.84;5143636;28;20493;-85
2021/03/11 04:34:20;;;;;;;21.85;10.57;;;;;;;8.41;100.00;99810.47;5144214;28;20035;-85
2021/03/11 04:36:51;;;;;;;23.08;11.68;;;;;;;8.44;100.00;99823.50;5144108;28;20114;-85
2021/03/11 04:39:22;;;;;;;21.10;10.23;;;;;;;8.49;100.00;99802.41;5142933;28;20490;-85
2021/03/11 04:41:54;;;;;;;21.80;9.80;;;;;;;8.52;100.00;99799.34;5143502;28;20030;-85
2021/03/11 04:44:27;;;;;;;19.92;10.55;;;;;;;8.55;100.00;99799.00;5143712;28;20039;-85
2021/03/11 04:46:58;;;;;;;23.70;11.48;;;;;;;8.53;100.00;99805.53;5143720;28;20058;-85
2021/03/11 04:49:30;;;;;;;22.45;11.25;;;;;;;8.58;100.00;99797.81;5143429;28;20070;-85
2021/03/11 04:52:01;;;;;;;22.65;10.93;;;;;;;8.64;100.00;99785.59;5138588;28;20034;-85
2021/03/11 04:54:33;;;;;;;22.65;11.25;;;;;;;8.64;100.00;99788.25;5143202;28;20015;-85
2021/03/11 04:57:05;;;;;;;20.58;10.48;;;;;;;8.67;100.00;99780.69;5143545;28;20022;-85
2021/03/11 04:59:36;;;;;;;21.70;10.85;;;;;;;8.68;100.00;99789.53;5143623;28;20023;-85
2021/03/11 05:02:09;;;;;;;24.17;11.48;;;;;;;8.72;100.00;99780.97;5142863;28;20472;-85
2021/03/11 05:04:42;;;;;;;22.98;11.65;;;;;;;8.86;100.00;99795.41;5143394;28;20573;-85
2021/03/11 05:07:14;;;;;;;20.88;11.52;;;;;;;8.89;100.00;99780.88;5143720;28;20026;-85
2021/03/11 05:09:45;;;;;;;20.10;10.05;;;;;;;8.96;100.00;99787.13;5143722;28;20074;-85
2021/03/11 05:12:15;;;;;;;19.42;10.40;;;;;;;8.96;100.00;99758.53;5146750;28;20026;-84
2021/03/11 05:14:45;;;;;;;22.63;10.25;;;;;;;9.07;100.00;99760.75;5142926;28;20026;-85
2021/03/11 05:17:16;;;;;;;22.63;9.93;;;;;;;9.10;100.00;99758.75;5158303;28;20544;-85
2021/03/11 05:19:46;;;;;;;21.27;10.43;;;;;;;9.10;100.00;99742.69;5143349;28;20105;-85
2021/03/11 05:22:17;;;;;;;20.23;9.18;;;;;;;9.17;100.00;99751.66;5143248;28;20242;-85
2021/03/11 05:24:47;;;;;;;19.67;9.80;;;;;;;9.19;100.00;99745.09;5124086;28;20119;-85
2021/03/11 05:27:18;;;;;;;20.92;8.98;;;;;;;9.19;100.00;99726.38;5157948;28;20026;-85
2021/03/11 05:29:48;;;;;;;19.77;9.65;;;;;;;9.24;100.00;99732.00;5143239;28;20030;-85
2021/03/11 05:32:19;;;;;;;17.83;9.32;;;;;;;9.31;100.00;99734.75;5142887;28;20485;-85
2021/03/11 05:34:49;;;;;;;17.20;8.73;;;;;;;9.30;100.00;99736.59;5143198;28;20026;-88
2021/03/11 05:37:20;;;;;;;18.75;9.07;;;;;;;9.33;100.00;99722.00;5143330;28;20553;-85
2021/03/11 05:39:50;;;;;;;16.30;7.85;;;;;;;9.31;100.00;99718.69;5143053;28;20493;-86
2021/03/11 05:42:21;;;;;;;17.88;9.57;;;;;;;9.31;100.00;99724.06;5142448;28;20430;-84
2021/03/11 05:44:52;;;;;;;17.80;9.38;;;;;;;9.30;100.00;99712.53;5126010;28;20389;-85
2021/03/11 05:47:25;;;;;;;23.60;10.95;;;;;;;9.14;100.00;99707.38;5143153;28;20375;-85
2021/03/11 05:49:57;;;;;;;21.13;9.63;;;;;;;9.13;100.00;99705.69;5143528;28;20031;-85
2021/03/11 05:52:30;;;;;;;19.60;9.13;;;;;;;9.07;100.00;99693.03;5142433;28;20413;-85
2021/03/11 05:55:02;;;;;;;20.83;9.40;;;;;;;9.13;100.00;99686.94;5143209;28;20044;-85
2021/03/11 05:57:33;;;;;;;20.60;9.02;;;;;;;9.03;100.00;99689.06;5141877;28;20066;-85
2021/03/11 06:00:04;;;;;;;22.10;10.27;;;;;;;8.92;100.00;99694.88;5138978;28;20058;-85
2021/03/11 06:02:35;;;;;;;24.30;10.05;;;;;;;8.89;100.00;99685.41;5142807;28;20034;-86
2021/03/11 06:05:06;;;;;;;24.15;10.48;;;;;;;8.93;100.00;99681.31;5130174;28;20034;-88
2021/03/11 06:07:37;;;;;;;21.23;10.25;;;;;;;8.91;100.00;99667.31;5143393;28;20418;-86
2021/03/11 06:10:11;;;;;;;24.67;10.32;;;;;;;8.89;100.00;99666.69;5141749;28;20561;-88
2021/03/11 06:12:43;;;;;;;20.02;9.40;;;;;;;8.97;100.00;99682.63;5142814;28;20041;-88
2021/03/11 06:15:21;;;;;;;21.35;9.88;;;;;;;9.06;100.00;99678.84;5143007;28;20039;-89
2021/03/11 06:17:53;;;;;;;18.27;9.23;;;;;;;9.02;100.00;99682.91;5143467;28;20089;-87
2021/03/11 06:20:23;;;;;;;19.92;10.07;;;;;;;9.02;100.00;99690.94;5146606;28;20139;-87
2021/03/11 06:22:54;;;;;;;21.60;9.45;;;;;;;9.05;100.00;99684.38;5138037;28;20031;-88
2021/03/11 06:25:27;;;;;;;24.52;9.88;;;;;;;9.04;100.00;99701.47;5142886;28;20034;-85
2021/03/11 06:27:57;;;;;;;16.00;8.50;;;;;;;9.11;100.00;99689.00;5143114;28;20066;-89
2021/03/11 06:30:36;;;;;;;17.25;8.63;;;;;;;9.14;100.00;99679.78;5137768;28;20062;-86
2021/03/11 06:33:07;;;;;;;17.50;8.57;;;;;;;9.16;100.00;99683.09;5141435;28;20031;-85
2021/03/11 06:35:38;;;;;;;18.00;7.75;;;;;;;9.25;100.00;99690.00;5143942;28;20043;-86
2021/03/11 06:38:27;;;;;;;16.20;7.45;;;;;;;9.29;100.00;99693.97;5142601;28;20037;-89
2021/03/11 06:40:58;;;;;;;14.57;6.88;;;;;;;9.38;100.00;99678.63;5142693;28;20022;-87
2021/03/11 06:43:28;;;;;;;15.75;5.85;;;;;;;9.48;100.00;99669.28;5142947;28;20023;-83
2021/03/11 06:46:07;;;;;;;12.25;5.88;;;;;;;9.58;100.00;99669.00;5146660;28;20037;-85
2021/03/11 06:48:38;;;;;;;11.88;5.63;;;;;;;9.70;100.00;99669.34;5146657;28;20035;-85
2021/03/11 06:51:17;;;;;;;18.02;5.60;;;;;;;9.69;100.00;99673.03;5146142;28;20453;-86
2021/03/11 06:53:59;;;;;;;10.63;4.43;;;;;;;9.88;100.00;99667.06;5146557;28;20042;-87
2021/03/11 06:56:30;;;;;;;10.40;4.90;;;;;;;10.03;100.00;99673.19;5146520;28;20498;-86
2021/03/11 06:59:04;;;;;;;7.25;4.00;;;;;;;10.17;100.00;99674.16;5140543;28;20065;-85
2021/03/11 07:01:47;;;;;;;9.65;3.65;;;;;;;10.21;100.00;99670.06;5133040;28;20027;-85
2021/03/11 07:04:24;;;;;;;8.48;3.63;;;;;;;10.20;100.00;99672.94;5135755;28;20446;-85
2021/03/11 07:06:54;;;;;;;6.75;3.03;;;;;;;10.13;100.00;99668.34;5144136;28;20027;-85
2021/03/11 07:09:39;;;;;;;10.02;3.50;;;;;;;10.18;100.00;99674.97;5145855;28;20042;-85
2021/03/11 07:12:10;;;;;;;11.80;4.13;;;;;;;10.13;100.00;99656.78;5144022;28;20030;-85
2021/03/11 07:14:41;;;;;;;8.30;3.55;;;;;;;10.19;100.00;99642.63;5146043;28;20501;-85
2021/03/11 07:17:19;;;;;;;9.82;2.75;;;;;;;10.27;100.00;99661.28;5145677;28;20026;-85
2021/03/11 07:20:07;;;;;;;8.30;2.60;;;;;;;10.33;100.00;99654.31;5145986;28;20030;-88
2021/03/11 07:22:38;;;;;;;17.27;3.38;;;;;;;10.36;100.00;99640.53;5145747;28;20037;-85
2021/03/11 07:25:26;;;;;;;10.70;2.90;;;;;;;10.40;100.00;99636.44;5146144;28;20385;-85
2021/03/11 07:27:56;;;;;;;12.02;3.03;;;;;;;10.50;100.00;99646.84;5145846;28;20038;-86
2021/03/11 07:30:28;;;;;;;11.57;3.13;;;;;;;10.54;100.00;99643.56;5145276;28;20031;-86
2021/03/11 07:33:01;;;;;;;13.18;2.67;;;;;;;10.64;100.00;99632.47;5145754;28;20406;-86
2021/03/11 07:35:34;;;;;;;12.52;2.33;;;;;;;10.78;100.00;99649.50;5144017;28;20035;-86
2021/03/11 07:38:06;;;;;;;12.25;2.67;;;;;;;10.77;100.00;99648.66;5127398;28;20078;-86
2021/03/11 07:40:38;;;;;;;6.95;2.10;;;;;;;10.80;100.00;99639.41;5142727;28;20429;-87
2021/03/11 07:43:10;;;;;;;11.50;2.50;;;;;;;10.87;100.00;99653.69;5144244;28;20069;-87
2021/03/11 07:45:44;;;;;;;15.45;3.20;;;;;;;11.03;100.00;99631.88;5144039;28;20081;-86
2021/03/11 07:48:21;;;;;;;6.30;1.75;;;;;;;11.05;100.00;99647.81;5144215;28;20022;-86
2021/03/11 07:50:55;;;;;;;16.17;3.35;;;;;;;10.94;100.00;99651.84;5143601;28;20121;-86
2021/03/11 07:53:46;;;;;;;13.43;2.42;;;;;;;10.92;100.00;99637.00;5126522;28;20069;-85
2021/03/11 07:56:18;;;;;;;15.38;2.15;;;;;;;10.87;100.00;99649.13;5128629;28;20019;-87
2021/03/11 07:58:51;;;;;;;12.60;2.00;;;;;;;10.97;100.00;99648.78;5143913;28;20138;-86
2021/03/11 08:01:21;;;;;;;17.05;2.83;;;;;;;11.13;100.00;99661.88;5142159;28;20105;-86
2021/03/11 08:03:53;;;;;;;16.98;3.00;;;;;;;11.13;100.00;99669.91;5138406;28;20558;-85
2021/03/11 08:06:37;;;;;;;19.75;3.20;;;;;;;11.14;100.00;99658.19;5142367;28;20121;-87
2021/03/11 08:09:27;;;;;;;20.13;3.97;;;;;;;11.12;100.00;99673.63;5159004;28;20069;-88
2021/03/11 08:12:36;;;;;;;22.65;3.25;;;;;;;11.12;100.00;99667.44;5140448;28;20022;-89
2021/03/11 08:15:25;;;;;;;31.70;4.28;;;;;;;11.32;100.00;99678.28;5157618;28;20027;-87
2021/03/11 08:18:02;;;;;;;28.40;4.13;;;;;;;11.28;100.00;99682.38;5142432;28;20031;-88
2021/03/11 08:20:43;;;;;;;25.73;4.63;;;;;;;11.35;100.00;99669.84;5143659;28;20025;-87
2021/03/11 08:23:13;;;;;;;36.60;5.60;;;;;;;11.45;100.00;99688.28;5143348;28;20466;-87
2021/03/11 08:25:44;;;;;;;26.85;4.50;;;;;;;11.55;100.00;99675.28;5142066;28;20058;-88
2021/03/11 08:28:35;;;;;;;32.53;4.95;;;;;;;11.65;100.00;99692.69;5138576;28;20490;-87
2021/03/11 08:31:14;;;;;;;36.75;5.18;;;;;;;11.61;100.00;99682.53;5147176;28;20038;-85
2021/03/11 08:34:02;;;;;;;35.13;5.45;;;;;;;11.59;100.00;99685.41;5143359;28;20053;-84
2021/03/11 08:36:37;;;;;;;34.65;3.92;;;;;;;11.51;100.00;99674.03;5144865;28;20026;-83
2021/03/11 08:39:42;;;;;;;36.97;5.10;;;;;;;11.44;100.00;99686.59;5143411;28;20022;-83
2021/03/11 08:42:42;;;;;;;37.55;5.20;;;;;;;11.37;100.00;99695.44;5129659;28;20033;-85
2021/03/11 08:45:34;;;;;;;34.63;5.30;;;;;;;11.40;100.00;99696.94;5141381;28;20030;-84
2021/03/11 08:48:13;;;;;;;28.38;5.30;;;;;;;11.49;100.00;99693.00;5142620;28;20030;-85
2021/03/11 08:50:45;;;;;;;28.27;5.82;;;;;;;11.61;100.00;99666.44;5141537;28;20072;-83
2021/03/11 08:53:44;;;;;;;30.73;4.68;;;;;;;11.73;100.00;99674.72;5142944;28;20133;-85
2021/03/11 08:56:44;;;;;;;36.40;4.82;;;;;;;11.83;100.00;99697.50;5142285;28;20118;-84
2021/03/11 08:59:18;;;;;;;33.85;4.88;;;;;;;11.95;100.00;99684.34;5142821;28;20053;-85
2021/03/11 09:01:50;;;;;;;39.08;4.65;;;;;;;11.98;100.00;99683.91;5142913;28;20512;-84
2021/03/11 09:04:21;;;;;;;28.05;4.00;;;;;;;11.92;100.00;99687.41;5142733;28;20117;-84
2021/03/11 09:07:03;;;;;;;30.20;4.13;;;;;;;11.90;100.00;99671.50;5138989;28;20106;-85
2021/03/11 09:09:48;;;;;;;29.52;3.45;;;;;;;11.87;100.00;99685.34;5136840;28;20397;-84
2021/03/11 09:12:24;;;;;;;19.23;4.63;;;;;;;11.90;100.00;99692.19;5133575;28;20093;-84
2021/03/11 09:14:57;;;;;;;30.83;5.13;;;;;;;11.92;100.00;99657.84;5142446;28;20375;-86
2021/03/11 09:17:32;;;;;;;33.67;4.22;;;;;;;11.85;100.00;99675.84;5141229;28;20030;-87
2021/03/11 09:20:06;;;;;;;34.72;4.45;;;;;;;11.75;100.00;99653.88;5141277;28;20058;-88
2021/03/11 09:22:40;;;;;;;32.30;4.90;;;;;;;11.89;100.00;99672.50;5141195;28;20402;-90
2021/03/11 09:25:20;;;;;;;25.73;4.55;;;;;;;12.18;100.00;99683.94;5157131;28;20046;-84
2021/03/11 09:27:59;;;;;;;18.20;3.58;;;;;;;12.31;100.00;99680.47;5141669;28;20057;-87
2021/03/11 09:30:30;;;;;;;35.97;3.78;;;;;;;12.26;100.00;99686.44;5142104;28;20030;-85
2021/03/11 09:33:09;;;;;;;34.70;7.68;;;;;;;12.10;100.00;99666.16;5142447;28;20437;-86
2021/03/11 09:35:44;;;;;;;30.67;4.20;;;;;;;12.24;100.00;99687.66;5142194;28;20394;-86
2021/03/11 09:38:26;;;;;;;27.67;3.70;;;;;;;12.32;100.00;99696.38;5157493;28;20031;-86
2021/03/11 09:40:58;;;;;;;29.42;4.43;;;;;;;12.44;100.00;99677.75;5157381;28;20031;-87
2021/03/11 09:43:33;;;;;;;26.60;4.13;;;;;;;12.39;100.00;99693.69;5156800;28;20062;-86
2021/03/11 09:46:14;;;;;;;28.98;4.28;;;;;;;12.45;100.00;99692.88;5140698;28;20034;-87
2021/03/11 09:48:55;;;;;;;28.13;5.68;;;;;;;12.52;100.00;99709.84;5136180;28;20117;-88
2021/03/11 09:51:30;;;;;;;25.23;4.53;;;;;;;12.28;99.17;99678.16;5139104;28;20016;-88
2021/03/11 09:54:06;;;;;;;27.27;4.18;;;;;;;12.30;100.00;99701.16;5142499;28;20042;-87
2021/03/11 09:56:40;;;;;;;19.80;3.92;;;;;;;12.34;95.86;99699.69;5140614;28;20069;-88
2021/03/11 09:59:16;;;;;;;23.33;4.47;;;;;;;12.32;99.60;99699.06;5143066;28;20039;-88
2021/03/11 10:02:05;;;;;;;32.63;4.55;;;;;;;12.41;97.74;99700.53;5153445;28;20034;-88
2021/03/11 10:04:44;;;;;;;25.02;5.13;;;;;;;12.55;100.00;99705.91;5136632;28;20394;-87
2021/03/11 10:07:14;;;;;;;19.02;4.00;;;;;;;12.63;100.00;99714.59;5136188;28;20421;-87
2021/03/11 10:09:52;;;;;;;18.45;3.40;;;;;;;12.81;93.82;99667.41;5140803;28;20031;-88
2021/03/11 10:12:49;;;;;;;27.10;4.05;;;;;;;12.62;96.81;99707.56;5121489;28;20382;-89
2021/03/11 10:15:19;;;;;;;19.48;3.63;;;;;;;12.67;95.45;99697.00;5139880;28;20031;-88
2021/03/11 10:18:10;;;;;;;27.23;3.70;;;;;;;12.50;94.94;99708.38;5142140;28;20105;-88
2021/03/11 10:20:41;;;;;;;21.13;3.72;;;;;;;12.59;98.22;99712.53;5144287;28;20026;-88
2021/03/11 10:23:17;;;;;;;23.98;3.58;;;;;;;12.51;99.84;99702.00;5144196;28;20058;-87
2021/03/11 10:26:16;;;;;;;31.45;4.40;;;;;;;12.54;97.55;99723.06;5133148;28;20157;-86
2021/03/11 10:28:52;;;;;;;24.00;4.60;;;;;;;12.69;100.00;99721.00;5146195;28;20033;-87
2021/03/11 10:31:26;;;;;;;21.48;4.47;;;;;;;12.69;100.00;99719.13;5144870;28;20375;-86
2021/03/11 10:34:06;;;;;;;20.05;3.90;;;;;;;13.01;100.00;99743.56;5145519;28;20460;-87
2021/03/11 10:36:40;;;;;;;13.98;3.22;;;;;;;12.84;90.54;99731.56;5146463;28;20063;-86
2021/03/11 10:39:13;;;;;;;13.77;2.60;;;;;;;12.69;100.00;99754.13;5142569;28;20506;-87
2021/03/11 10:42:06;;;;;;;27.95;3.72;;;;;;;12.72;100.00;99741.31;5125497;28;20131;-84
2021/03/11 10:44:53;;;;;;;15.77;3.30;;;;;;;12.80;97.38;99770.69;5139602;28;20033;-86
2021/03/11 10:47:26;;;;;;;20.08;3.03;;;;;;;12.96;100.00;99763.03;5124253;28;20023;-87
2021/03/11 10:49:57;;;;;;;22.02;4.10;;;;;;;13.16;100.00;99754.94;5144995;28;20461;-88
2021/03/11 10:52:57;;;;;;;23.92;3.25;;;;;;;12.94;85.76;99729.28;5144348;28;20037;-88
2021/03/11 10:55:36;;;;;;;12.63;2.88;;;;;;;12.74;83.19;99761.59;5135102;28;20034;-87
2021/03/11 10:58:22;;;;;;;27.15;3.38;;;;;;;12.73;92.68;99765.31;5143858;28;20129;-87
2021/03/11 11:01:21;;;;;;;;;;;;;;;12.81;88.55;99748.97;5144084;28;20033;-87
2021/03/11 11:03:56;;;;;;;17.48;3.60;;;;;;;12.78;96.42;99803.19;5144934;28;20298;-87
2021/03/11 11:06:30;;;;;;;24.52;3.40;;;;;;;12.74;90.62;99779.59;5132602;28;20110;-87
2021/03/11 11:09:00;;;;;;;20.60;4.60;;;;;;;12.98;100.00;99783.53;5144379;28;20027;-87
2021/03/11 11:11:31;;;;;;;16.45;3.63;;;;;;;12.96;94.19;99783.75;5138835;28;20053;-86
2021/03/11 11:14:01;;;;;;;15.00;3.22;;;;;;;12.72;97.03;99793.25;5140628;28;20086;-87
2021/03/11 11:16:34;;;;;;;25.33;3.65;;;;;;;12.49;97.23;99787.44;5144615;28;20505;-87
2021/03/11 11:19:05;;;;;;;17.92;2.90;;;;;;;12.47;97.22;99778.75;5138739;28;20034;-87
2021/03/11 11:21:35;;;;;;;25.58;3.88;;;;;;;12.41;98.42;99791.97;5136304;28;20030;-85
2021/03/11 11:24:09;;;;;;;20.77;3.67;;;;;;;12.54;99.62;99791.16;5144913;28;20389;-86
2021/03/11 11:26:39;;;;;;;23.95;3.85;;;;;;;12.73;97.85;99796.78;5144562;28;20030;-86
2021/03/11 11:29:10;;;;;;;27.25;3.95;;;;;;;12.66;99.29;99786.84;5143025;28;20038;-86
2021/03/11 11:31:40;;;;;;;27.67;7.07;;;;;;;12.82;99.56;99801.75;5140249;28;20443;-85
2021/03/11 11:34:13;;;;;;;28.05;3.50;;;;;;;12.81;100.00;99794.72;5122767;29;20113;-86
2021/03/11 11:36:44;;;;;;;21.98;3.72;;;;;;;12.86;90.23;99808.38;5143239;28;20085;-87
2021/03/11 11:39:17;;;;;;;19.45;3.55;;;;;;;12.68;94.82;99798.22;5122716;28;20054;-86
2021/03/11 11:41:50;;;;;;;14.25;2.58;;;;;;;12.64;95.58;99809.59;5126296;28;20034;-86
2021/03/11 11:44:23;;;;;;;21.95;3.15;;;;;;;12.80;95.11;99790.38;5144926;28;20026;-85
2021/03/11 11:46:53;;;;;;;22.45;4.47;;;;;;;12.82;92.39;99822.47;5145048;28;20512;-87
2021/03/11 11:49:23;;;;;;;19.70;3.70;;;;;;;12.94;90.73;99813.56;5139534;28;20032;-87
2021/03/11 11:51:54;;;;;;;20.08;3.75;;;;;;;12.83;96.27;99814.19;5144470;28;20027;-88